Nearby METAR Reports

 

KRDU - Raleigh/Durham, North Carolina, USA
Distance from station: NNW 20mi, 33km
Updated: Thu, 24-Jun-2021 8:51pm EDT
Few Clouds
Few Clouds
 Wind from E
Wind: E 7 mph , 11 km/h
Temperature: 72°F , 22°C
Dew Point: 54°F , 12°C
Humidity: 53%
Barometer: 30.26 inHg , 1024.7 hPa
Clouds: Few Clouds
Visibility: 10 miles , 16 km
Cloud details: Few Clouds 25000 ft
2021/06/25 00:51 KRDU 250051Z 10006KT 10SM FEW250 22/12 A3026 RMK AO2 SLP242 T02220122 $
KJNX - Smithfield Johns, North Carolina, USA
Distance from station: ESE 17mi, 28km
Updated: Thu, 24-Jun-2021 9:35pm EDT
Clear
Clear
 Wind from calm
Wind: Calm
Temperature: 64°F , 18°C
Dew Point: 61°F , 16°C
Humidity: 88%
Barometer: 30.25 inHg , 1024.4 hPa
Clouds: Clear
Visibility: 10 miles , 16 km
2021/06/25 01:35 KJNX 250135Z AUTO 00000KT 10SM CLR 18/16 A3025 RMK AO2
 
KLHZ - Louisburg/Frankl, North Carolina, USA
Distance from station: NE 33mi, 54km
Updated: Thu, 24-Jun-2021 9:35pm EDT
Clear
Clear
 Wind from calm
Wind: Calm
Temperature: 61°F , 16°C
Dew Point: 54°F , 12°C
Humidity: 77%
Barometer: 30.30 inHg , 1026.1 hPa
Clouds: Clear
Visibility: 10 miles , 16 km
2021/06/25 01:35 KLHZ 250135Z AUTO 00000KT 10SM CLR 16/12 A3030 RMK AO2
KPOB - Pope Afb, North Carolina, USA
Distance from station: SSW 37mi, 59km
Updated: Thu, 24-Jun-2021 8:56pm EDT
Clear
Clear
 Wind from E
Wind: E 5 mph , 7 km/h
Temperature: 72°F , 22°C
Dew Point: 57°F , 14°C
Humidity: 61%
Barometer: 30.23 inHg , 1023.7 hPa
Clouds: Clear
Visibility: 10 miles , 16 km
2021/06/25 00:56 KPOB 250056Z 10004KT 10SM CLR 22/14 A3023 RMK AO2A SLPNO ALSTG ESTMD
 
KSCR - Siler City, North Carolina, USA
Distance from station: W 47mi, 75km
Updated: Thu, 24-Jun-2021 9:35pm EDT
Clear
Clear
 Wind from calm
Wind: Calm
Temperature: 61°F , 16°C
Dew Point: 59°F , 15°C
Humidity: 94%
Barometer: 30.27 inHg , 1025.1 hPa
Clouds: Clear
Visibility: 10 miles , 16 km
2021/06/25 01:35 KSCR 250135Z AUTO 00000KT 10SM CLR 16/15 A3027 RMK AO2 T01610147
KTDF - Roxboro Person, North Carolina, USA
Distance from station: NNW 49mi, 79km
Updated: Thu, 24-Jun-2021 9:35pm EDT
Clear
Clear
 Wind from calm
Wind: Calm
Temperature: 61°F , 16°C
Dew Point: 57°F , 14°C
Humidity: 88%
Barometer: 30.30 inHg , 1026.1 hPa
Clouds: Clear
Visibility: 10 miles , 16 km
2021/06/25 01:35 KTDF 250135Z AUTO 00000KT 10SM CLR 16/14 A3030 RMK AO2
 
KSOP - Southern Pines, North Carolina, USA
Distance from station: SW 50mi, 80km
Updated: Thu, 24-Jun-2021 8:56pm EDT
Clear
Clear
 Wind from E
Wind: E 3 mph , 6 km/h
Temperature: 72°F , 22°C
Dew Point: 54°F , 12°C
Humidity: 53%
Barometer: 30.27 inHg , 1025.1 hPa
Clouds: Clear
Visibility: 10 miles , 16 km
2021/06/25 00:56 KSOP 250056Z AUTO 10003KT 10SM CLR 22/12 A3027 RMK AO2 SLP251 T02170117
KHNZ - Henderson/Oxford, North Carolina, USA
Distance from station: N 52mi, 84km
Updated: Thu, 24-Jun-2021 9:15pm EDT
Clear
Clear
 Wind from calm
Wind: Calm
Temperature: 63°F , 17°C
Dew Point: 54°F , 12°C
Humidity: 73%
Barometer: 30.28 inHg , 1025.4 hPa
Clouds: Clear
Visibility: 10 miles , 16 km
2021/06/25 01:15 KHNZ 250115Z AUTO 00000KT 10SM CLR 17/12 A3028 RMK AO2 T01740117
 
KBUY - Burlington, North Carolina, USA
Distance from station: NW 54mi, 86km
Updated: Thu, 24-Jun-2021 8:54pm EDT
Clear
Clear
 Wind from calm
Wind: Calm
Temperature: 66°F , 19°C
Dew Point: 55°F , 13°C
Humidity: 68%
Barometer: 30.26 inHg , 1024.7 hPa
Clouds: Clear
Visibility: 10 miles , 16 km
2021/06/25 00:54 KBUY 250054Z AUTO 00000KT 10SM CLR 19/13 A3026 RMK AO2 SLP243 T01890133
KTNB - Boone Watauga Ct, North Carolina, USA
Distance from station: SE 2mi, 3km
Updated: Thu, 24-Jun-2021 9:30pm EDT

 Wind from calm
Wind: Calm
Temperature: 59°F , 15°C
Dew Point: 57°F , 14°C
Humidity: 94%
Barometer: 30.35 inHg , 1027.8 hPa
Visibility: 10 miles , 16 km
2021/06/25 01:30 KTNB 250130Z AUTO 00000KT 10SM 15/14 A3035 RMK AO2 T01470144
 
KGEV - Jefferson, North Carolina, USA
Distance from station: NE 21mi, 33km
Updated: Mon, 21-Jun-2021 1:35am EDT
NOT Current
Clear
Clear
 Wind from W
Wind: W 13 mph , 20 km/h, Gust: 18 mph , 30 km/h
Temperature: 70°F , 21°C
Dew Point: 66°F , 19°C
Humidity: 88%
Barometer: 29.93 inHg , 1013.5 hPa
Clouds: Clear
Visibility: 10 miles , 16 km
2021/06/21 05:35 KGEV 210535Z AUTO 27011G16KT 10SM CLR 21/19 A2993 RMK AO2 T02110187
KFQD - Rutherfordton, North Carolina, USA
Distance from station: SSW 57mi, 92km
Updated: Thu, 24-Jun-2021 9:35pm EDT
Partly cloudy
Partly cloudy
 Wind from E
Wind: E 7 mph , 11 km/h
Temperature: 70°F , 21°C
Dew Point: 59°F , 15°C
Humidity: 69%
Barometer: 30.28 inHg , 1025.4 hPa
Clouds: Partly cloudy
Visibility: 10 miles , 16 km
Cloud details: Partly cloudy 4700 ft
2021/06/25 01:35 KFQD 250135Z AUTO 09006KT 10SM SCT047 21/15 A3028 RMK AO2
 
KAVL - Asheville, North Carolina, USA
Distance from station: SW 72mi, 117km
Updated: Thu, 24-Jun-2021 8:54pm EDT
Overcast
Overcast
 Wind from SE
Wind: SE 3 mph , 6 km/h
Temperature: 70°F , 21°C
Dew Point: 59°F , 15°C
Humidity: 69%
Barometer: 30.30 inHg , 1026.1 hPa
Clouds: Overcast
Visibility: 10 miles , 16 km
Cloud details: Overcast 7000 ft
2021/06/25 00:54 KAVL 250054Z 13003KT 10SM OVC070 21/15 A3030 RMK AO2 SLP239 T02060150